Time;durP1;ratioP1;P1;durP2;ratioP2;P2;SDS_P1;SDS_P2;PMS_P1;PMS_P2;Temp;Humidity;BMP_temperature;BMP_pressure;BME280_temperature;BME280_humidity;BME280_pressure;Samples;Min_cycle;Max_cycle;Signal;HPM_P1;HPM_P2
2022/10/26 00:02:09;;;;;;;7.93;5.95;;;12.20;99.90;;;;;;5090815;28;20040;-78
2022/10/26 00:04:34;;;;;;;13.45;6.10;;;11.70;99.90;;;;;;5089654;28;20131;-79
2022/10/26 00:07:00;;;;;;;11.55;5.88;;;11.50;99.90;;;;;;5091736;28;20036;-76
2022/10/26 00:09:25;;;;;;;15.00;5.95;;;11.10;99.90;;;;;;5073617;28;20047;-80
2022/10/26 00:11:52;;;;;;;11.93;6.43;;;11.80;99.90;;;;;;5073262;28;20098;-77
2022/10/26 00:14:17;;;;;;;9.93;6.22;;;11.00;99.90;;;;;;5091913;28;20044;-78
2022/10/26 00:16:43;;;;;;;9.85;5.93;;;11.00;99.90;;;;;;5091819;28;20093;-76
2022/10/26 00:19:09;;;;;;;10.27;5.82;;;11.20;99.90;;;;;;5089632;28;20040;-80
2022/10/26 00:21:34;;;;;;;13.20;6.28;;;11.00;99.90;;;;;;5088407;28;20086;-77
2022/10/26 00:24:00;;;;;;;7.00;6.28;;;11.00;99.90;;;;;;5091594;28;20032;-80
2022/10/26 00:26:26;;;;;;;9.13;5.65;;;11.00;99.90;;;;;;5089010;28;20070;-81
2022/10/26 00:28:56;;;;;;;10.43;5.90;;;11.00;99.90;;;;;;5090965;28;20036;-81
2022/10/26 00:31:23;;;;;;;8.43;6.15;;;11.00;99.90;;;;;;5091728;28;20071;-77
2022/10/26 00:33:53;;;;;;;12.93;6.68;;;11.00;99.90;;;;;;5090107;28;20040;-78
2022/10/26 00:36:19;;;;;;;7.95;6.30;;;11.00;99.90;;;;;;5089919;28;20376;-76
2022/10/26 00:38:53;;;;;;;14.45;6.53;;;11.00;99.90;;;;;;5090073;28;20059;-77
2022/10/26 00:41:22;;;;;;;8.35;6.40;;;11.00;99.90;;;;;;5090747;28;20048;-80
2022/10/26 00:43:49;;;;;;;10.45;6.88;;;11.20;99.90;;;;;;5089755;28;20036;-76
2022/10/26 00:46:20;;;;;;;9.50;6.53;;;12.50;99.90;;;;;;5089472;28;20040;-77
2022/10/26 00:48:52;;;;;;;8.05;5.80;;;11.00;99.90;;;;;;5069512;28;20123;-76
2022/10/26 00:51:31;;;;;;;9.68;5.80;;;11.00;99.90;;;;;;5090912;28;20089;-78
2022/10/26 00:54:00;;;;;;;10.48;6.68;;;11.00;99.90;;;;;;5072506;28;20033;-77
2022/10/26 00:56:27;;;;;;;11.70;6.70;;;10.90;99.90;;;;;;5089648;28;20043;-77
2022/10/26 00:58:54;;;;;;;9.57;6.10;;;10.90;99.90;;;;;;5072943;28;20078;-78
2022/10/26 01:01:20;;;;;;;10.07;5.82;;;12.70;99.90;;;;;;5089957;28;20044;-79
2022/10/26 01:03:47;;;;;;;9.35;5.93;;;10.90;99.90;;;;;;5089940;28;20039;-81
2022/10/26 01:06:13;;;;;;;8.32;6.35;;;10.90;99.90;;;;;;5091766;28;20050;-77
2022/10/26 01:08:42;;;;;;;9.18;6.03;;;12.40;99.90;;;;;;5090521;28;20506;-80
2022/10/26 01:11:08;;;;;;;6.70;5.70;;;12.20;99.90;;;;;;5067911;28;20085;-81
2022/10/26 01:13:35;;;;;;;10.95;6.35;;;10.90;99.90;;;;;;5088907;28;20079;-81
2022/10/26 01:16:19;;;;;;;8.80;6.18;;;10.80;99.90;;;;;;5072210;28;20044;-77
2022/10/26 01:19:06;;;;;;;10.60;7.28;;;10.80;99.90;;;;;;5088277;28;20943;-77
2022/10/26 01:21:41;;;;;;;11.25;6.22;;;10.80;99.90;;;;;;5071660;28;20041;-77
2022/10/26 01:24:31;;;;;;;11.73;6.90;;;10.80;99.90;;;;;;5085575;28;20044;-82
2022/10/26 01:27:25;;;;;;;10.40;6.65;;;10.80;99.90;;;;;;5082487;28;20058;-80
2022/10/26 01:29:57;;;;;;;9.82;7.03;;;10.70;99.90;;;;;;5065640;28;20032;-81
2022/10/26 01:32:29;;;;;;;12.10;6.50;;;10.70;99.90;;;;;;5090048;28;20396;-81
2022/10/26 01:35:07;;;;;;;9.10;6.80;;;10.70;99.90;;;;;;5072502;28;20057;-81
2022/10/26 01:37:37;;;;;;;6.93;6.18;;;10.70;99.90;;;;;;5089089;28;20044;-80
2022/10/26 01:40:14;;;;;;;10.57;6.40;;;10.60;99.90;;;;;;5089929;28;20044;-79
2022/10/26 01:42:45;;;;;;;11.65;7.32;;;10.60;99.90;;;;;;5090072;28;20161;-80
2022/10/26 01:45:12;;;;;;;12.98;6.85;;;10.60;99.90;;;;;;5090220;28;20032;-76
2022/10/26 01:47:38;;;;;;;8.85;7.30;;;10.60;99.90;;;;;;5090151;28;20040;-80
2022/10/26 01:50:06;;;;;;;10.88;6.78;;;10.60;99.90;;;;;;5089661;28;20039;-78
2022/10/26 01:52:32;;;;;;;10.13;6.70;;;10.60;99.90;;;;;;5089534;28;20066;-77
2022/10/26 01:55:01;;;;;;;10.45;8.02;;;11.70;99.90;;;;;;5090606;28;20040;-79
2022/10/26 01:57:31;;;;;;;9.35;8.18;;;10.60;99.90;;;;;;5089513;28;20669;-80
2022/10/26 02:00:08;;;;;;;12.73;6.78;;;11.40;99.90;;;;;;5091181;28;20044;-81
2022/10/26 02:02:54;;;;;;;11.95;7.32;;;10.50;99.90;;;;;;5089438;28;20051;-80
2022/10/26 02:05:42;;;;;;;12.55;7.70;;;10.50;99.90;;;;;;5084707;28;20422;-81
2022/10/26 02:08:49;;;;;;;9.40;7.78;;;10.50;99.90;;;;;;5084683;28;20040;-81
2022/10/26 02:11:23;;;;;;;9.95;7.65;;;10.50;99.90;;;;;;5100445;28;20423;-79
2022/10/26 02:14:11;;;;;;;10.40;8.18;;;10.40;99.90;;;;;;5089001;28;20040;-80
2022/10/26 02:16:42;;;;;;;10.13;7.60;;;10.40;99.90;;;;;;5088403;28;20056;-80
2022/10/26 02:19:23;;;;;;;9.05;8.10;;;10.40;99.90;;;;;;5082118;28;20097;-80
2022/10/26 02:21:55;;;;;;;10.90;7.90;;;10.40;99.90;;;;;;5069630;28;20090;-79
2022/10/26 02:24:23;;;;;;;12.48;7.57;;;10.50;99.90;;;;;;5084945;28;20109;-81
2022/10/26 02:26:51;;;;;;;10.38;7.63;;;10.40;99.90;;;;;;5061918;28;20423;-81
2022/10/26 02:29:19;;;;;;;10.90;8.13;;;10.40;99.90;;;;;;5067412;28;20071;-80
2022/10/26 02:31:47;;;;;;;11.68;7.63;;;10.40;99.90;;;;;;5082618;28;20407;-80
2022/10/26 02:34:16;;;;;;;9.05;7.70;;;10.40;99.90;;;;;;5082208;28;20048;-79
2022/10/26 02:36:45;;;;;;;14.20;8.27;;;11.00;99.90;;;;;;5087754;28;20388;-78
2022/10/26 02:39:15;;;;;;;13.32;8.90;;;11.60;99.90;;;;;;5087901;28;20044;-79
2022/10/26 02:41:42;;;;;;;12.77;8.15;;;11.40;99.90;;;;;;5087374;28;20118;-81
2022/10/26 02:44:18;;;;;;;12.90;8.45;;;10.30;99.90;;;;;;5088494;28;20048;-76
2022/10/26 02:46:45;;;;;;;12.50;8.50;;;10.40;99.90;;;;;;5092221;28;20423;-78
2022/10/26 02:49:10;;;;;;;10.27;8.07;;;10.20;99.90;;;;;;5087698;28;20467;-77
2022/10/26 02:51:50;;;;;;;10.27;7.72;;;10.30;99.90;;;;;;5075133;28;20119;-77
2022/10/26 02:54:48;;;;;;;9.68;7.85;;;10.30;99.90;;;;;;5074231;28;20053;-77
2022/10/26 02:57:28;;;;;;;11.90;8.15;;;10.30;99.90;;;;;;5086564;28;20040;-76
2022/10/26 02:59:55;;;;;;;11.10;7.95;;;10.30;99.90;;;;;;5087848;28;20044;-77
2022/10/26 03:02:21;;;;;;;10.25;7.55;;;10.20;99.90;;;;;;5091329;28;20051;-78
2022/10/26 03:04:49;;;;;;;12.65;8.23;;;10.30;99.90;;;;;;5063774;28;20052;-77
2022/10/26 03:07:22;;;;;;;10.85;8.15;;;10.20;99.90;;;;;;5092637;28;20487;-78
2022/10/26 03:09:48;;;;;;;14.00;7.70;;;10.20;99.90;;;;;;5080963;28;20165;-77
2022/10/26 03:12:13;;;;;;;16.08;9.07;;;11.30;99.90;;;;;;5092782;28;20873;-80
2022/10/26 03:14:40;;;;;;;9.70;8.32;;;10.20;99.90;;;;;;5086300;28;20051;-77
2022/10/26 03:17:06;;;;;;;10.63;7.75;;;10.80;99.90;;;;;;5074515;28;20391;-78
2022/10/26 03:19:31;;;;;;;12.25;7.55;;;11.60;99.90;;;;;;5091179;28;20039;-77
2022/10/26 03:21:57;;;;;;;12.25;8.65;;;10.10;99.90;;;;;;5071086;28;20046;-77
2022/10/26 03:24:23;;;;;;;9.35;7.70;;;11.20;99.90;;;;;;5092904;28;20040;-78
2022/10/26 03:26:48;;;;;;;12.48;8.70;;;9.90;99.90;;;;;;5092291;28;20540;-77
2022/10/26 03:29:14;;;;;;;11.43;8.38;;;10.20;99.90;;;;;;5073832;28;20032;-79
2022/10/26 03:31:40;;;;;;;12.02;9.25;;;10.10;99.90;;;;;;5091208;28;20040;-77
2022/10/26 03:34:05;;;;;;;11.70;8.88;;;11.50;99.90;;;;;;5092236;28;20131;-79
2022/10/26 03:36:31;;;;;;;13.80;8.23;;;10.10;99.90;;;;;;5089760;28;20063;-77
2022/10/26 03:38:57;;;;;;;14.88;8.75;;;10.00;99.90;;;;;;5074094;28;20085;-80
2022/10/26 03:41:23;;;;;;;12.40;8.55;;;10.20;99.90;;;;;;5091211;28;20040;-80
2022/10/26 03:43:48;;;;;;;11.18;8.90;;;10.00;99.90;;;;;;5090413;28;21071;-78
2022/10/26 03:46:14;;;;;;;14.80;9.05;;;10.00;99.90;;;;;;5090669;28;20072;-77
2022/10/26 03:48:40;;;;;;;14.38;9.48;;;11.20;99.90;;;;;;5092121;28;20127;-76
2022/10/26 03:51:05;;;;;;;16.58;10.25;;;11.50;99.90;;;;;;5072975;28;20073;-76
2022/10/26 03:53:31;;;;;;;13.70;9.07;;;10.80;99.90;;;;;;5073458;28;20448;-77
2022/10/26 03:55:57;;;;;;;14.27;10.50;;;9.90;99.90;;;;;;5090514;28;20047;-75
2022/10/26 03:58:22;;;;;;;14.15;9.98;;;11.20;99.90;;;;;;5091071;28;20036;-79
2022/10/26 04:00:48;;;;;;;12.55;9.50;;;9.90;99.90;;;;;;5090257;28;20097;-77
2022/10/26 04:03:14;;;;;;;16.25;10.80;;;9.90;99.90;;;;;;5090845;28;20037;-77
2022/10/26 04:05:39;;;;;;;10.95;9.70;;;9.90;99.90;;;;;;5089518;28;20048;-76
2022/10/26 04:08:05;;;;;;;15.05;10.15;;;9.90;99.90;;;;;;5092044;28;20044;-77
2022/10/26 04:10:31;;;;;;;17.13;11.30;;;9.90;99.90;;;;;;5074020;28;20483;-77
2022/10/26 04:12:59;;;;;;;11.35;10.07;;;9.90;99.90;;;;;;5082442;28;20043;-76
2022/10/26 04:15:24;;;;;;;11.35;9.75;;;9.50;99.90;;;;;;5073448;28;20036;-79
2022/10/26 04:17:58;;;;;;;12.70;10.55;;;9.90;99.90;;;;;;5089441;28;20085;-76
2022/10/26 04:20:26;;;;;;;12.40;9.65;;;11.10;99.90;;;;;;5091484;28;20123;-80
2022/10/26 04:23:00;;;;;;;15.95;11.68;;;9.90;99.90;;;;;;5087797;28;20036;-76
2022/10/26 04:25:25;;;;;;;11.55;10.00;;;11.30;99.90;;;;;;5072509;28;20511;-77
2022/10/26 04:27:51;;;;;;;14.43;10.50;;;11.40;99.90;;;;;;5090276;28;20044;-77
2022/10/26 04:30:17;;;;;;;13.57;10.80;;;9.90;99.90;;;;;;5072967;28;20514;-79
2022/10/26 04:32:43;;;;;;;18.15;11.52;;;9.90;99.90;;;;;;5072609;28;20054;-77
2022/10/26 04:35:08;;;;;;;13.15;10.20;;;9.90;99.90;;;;;;5072976;28;20489;-76
2022/10/26 04:37:34;;;;;;;17.40;10.40;;;9.90;99.90;;;;;;5090702;28;20056;-76
2022/10/26 04:40:00;;;;;;;16.67;12.30;;;9.90;99.90;;;;;;5089112;28;20113;-78
2022/10/26 04:42:25;;;;;;;14.48;11.40;;;11.00;99.90;;;;;;5091025;28;20438;-76
2022/10/26 04:44:51;;;;;;;14.98;11.77;;;10.00;99.90;;;;;;5090082;28;20122;-76
2022/10/26 04:47:16;;;;;;;19.23;12.13;;;11.10;99.90;;;;;;5088733;28;20380;-76
2022/10/26 04:49:42;;;;;;;14.32;11.63;;;11.70;99.90;;;;;;5090949;28;20074;-77
2022/10/26 04:52:07;;;;;;;21.65;12.23;;;10.50;99.90;;;;;;5073109;28;20386;-79
2022/10/26 04:54:33;;;;;;;16.98;11.43;;;10.00;99.90;;;;;;5090160;28;20472;-79
2022/10/26 04:56:59;;;;;;;16.40;12.45;;;11.20;99.90;;;;;;5089188;28;20086;-80
2022/10/26 04:59:24;;;;;;;16.13;11.70;;;10.00;99.90;;;;;;5089749;28;20048;-80
2022/10/26 05:01:50;;;;;;;19.60;13.20;;;10.00;99.90;;;;;;5072837;28;20079;-80
2022/10/26 05:04:16;;;;;;;15.27;11.90;;;10.00;99.90;;;;;;5086587;28;20040;-76
2022/10/26 05:06:41;;;;;;;16.52;12.18;;;10.90;99.90;;;;;;5069404;28;20036;-79
2022/10/26 05:09:07;;;;;;;18.10;12.85;;;11.80;99.90;;;;;;5088521;28;20051;-80
2022/10/26 05:11:32;;;;;;;17.65;13.10;;;11.60;99.90;;;;;;5089460;28;20455;-80
2022/10/26 05:13:58;;;;;;;17.67;12.80;;;10.40;99.90;;;;;;5072775;28;20130;-82
2022/10/26 05:16:24;;;;;;;16.70;12.77;;;11.20;99.90;;;;;;5089365;28;20035;-79
2022/10/26 05:18:49;;;;;;;18.83;13.45;;;10.00;99.90;;;;;;5090765;28;20052;-81
2022/10/26 05:21:19;;;;;;;39.53;26.80;;;10.00;99.90;;;;;;5085114;28;20115;-81
2022/10/26 05:23:54;;;;;;;17.30;14.25;;;10.00;99.90;;;;;;5086724;28;20154;-81
2022/10/26 05:26:23;;;;;;;19.85;13.05;;;10.00;99.90;;;;;;5088648;28;20040;-80
2022/10/26 05:28:50;;;;;;;18.80;14.27;;;10.00;99.90;;;;;;5071623;28;20040;-81
2022/10/26 05:31:15;;;;;;;17.20;12.85;;;10.00;99.90;;;;;;5090288;28;20067;-81
2022/10/26 05:33:41;;;;;;;20.48;12.63;;;10.00;99.90;;;;;;5090311;28;20523;-76
2022/10/26 05:36:07;;;;;;;21.25;14.43;;;10.00;99.90;;;;;;5082935;28;20475;-78
2022/10/26 05:38:33;;;;;;;25.48;14.13;;;10.00;99.90;;;;;;5069453;28;20048;-78
2022/10/26 05:41:00;;;;;;;21.30;14.23;;;10.10;99.90;;;;;;5088285;28;20051;-77
2022/10/26 05:43:26;;;;;;;27.48;14.93;;;10.00;99.90;;;;;;5089187;28;20048;-79
2022/10/26 05:45:53;;;;;;;24.42;15.43;;;10.00;99.90;;;;;;5071946;28;20047;-77
2022/10/26 05:48:19;;;;;;;19.42;14.35;;;10.00;99.90;;;;;;5090102;28;20122;-81
2022/10/26 05:50:45;;;;;;;20.98;14.20;;;11.20;99.90;;;;;;5087334;28;20036;-82
2022/10/26 05:53:11;;;;;;;18.23;13.18;;;11.50;99.90;;;;;;5071666;28;20124;-80
2022/10/26 05:55:37;;;;;;;18.30;13.85;;;10.00;99.90;;;;;;5089924;28;20048;-78
2022/10/26 05:58:03;;;;;;;19.83;14.93;;;10.00;99.90;;;;;;5087320;28;20036;-81
2022/10/26 06:00:29;;;;;;;17.45;14.05;;;10.00;99.90;;;;;;5071328;28;20050;-80
2022/10/26 06:03:17;;;;;;;19.27;13.60;;;10.10;99.90;;;;;;5088187;28;20042;-76
2022/10/26 06:05:52;;;;;;;18.63;13.73;;;10.10;99.90;;;;;;5088016;28;20048;-80
2022/10/26 06:08:19;;;;;;;17.10;13.55;;;10.10;99.90;;;;;;5088548;28;20048;-77
2022/10/26 06:10:47;;;;;;;17.33;14.32;;;10.10;99.90;;;;;;5087467;28;20201;-76
2022/10/26 06:13:13;;;;;;;20.85;12.77;;;10.10;99.90;;;;;;5076183;28;20063;-78
2022/10/26 06:16:06;;;;;;;18.77;13.63;;;10.10;99.90;;;;;;5089191;28;20123;-77
2022/10/26 06:19:05;;;;;;;16.63;13.63;;;10.10;99.90;;;;;;5063387;28;20581;-77
2022/10/26 06:21:45;;;;;;;19.65;14.13;;;10.20;99.90;;;;;;5085545;28;20032;-78
2022/10/26 06:24:35;;;;;;;18.05;14.63;;;10.20;99.90;;;;;;5084663;28;20036;-78
2022/10/26 06:27:37;;;;;;;15.43;12.57;;;10.20;99.90;;;;;;5091251;28;20044;-80
2022/10/26 06:30:11;;;;;;;15.23;12.73;;;10.20;99.90;;;;;;5093394;28;20113;-80
2022/10/26 06:32:39;;;;;;;17.35;13.15;;;10.20;99.90;;;;;;5091779;28;20084;-81
2022/10/26 06:35:10;;;;;;;19.50;12.57;;;10.20;99.90;;;;;;5074976;28;20044;-80
2022/10/26 06:37:37;;;;;;;18.05;12.60;;;10.20;99.90;;;;;;5075096;28;20131;-79
2022/10/26 06:40:04;;;;;;;15.55;12.07;;;11.20;99.90;;;;;;5090810;28;20080;-77
2022/10/26 06:42:31;;;;;;;20.98;13.00;;;10.30;99.90;;;;;;5074829;28;20127;-77
2022/10/26 06:44:57;;;;;;;19.77;12.88;;;10.30;99.90;;;;;;5091942;28;20040;-76
2022/10/26 06:47:30;;;;;;;20.17;12.50;;;10.30;99.90;;;;;;5090899;28;20101;-78
2022/10/26 06:50:03;;;;;;;21.15;12.93;;;10.30;99.90;;;;;;5092101;28;20083;-77
2022/10/26 06:52:43;;;;;;;14.48;11.38;;;10.30;99.90;;;;;;5091687;28;20047;-78
2022/10/26 06:55:14;;;;;;;16.77;11.43;;;10.60;99.90;;;;;;5091486;28;20591;-78
2022/10/26 06:57:42;;;;;;;18.38;11.88;;;10.30;99.90;;;;;;5087490;28;20050;-76
2022/10/26 07:00:18;;;;;;;19.13;12.52;;;10.40;99.90;;;;;;5073978;28;20051;-77
2022/10/26 07:02:44;;;;;;;16.45;11.02;;;10.40;99.90;;;;;;5088296;28;20040;-77
2022/10/26 07:05:11;;;;;;;16.35;11.40;;;10.40;99.90;;;;;;5083703;28;20048;-77
2022/10/26 07:07:42;;;;;;;15.75;11.30;;;10.40;99.90;;;;;;5090234;28;20057;-76
2022/10/26 07:10:09;;;;;;;16.10;11.13;;;12.00;99.90;;;;;;5092885;28;20127;-79
2022/10/26 07:12:35;;;;;;;12.98;9.85;;;10.50;99.90;;;;;;5084313;28;20070;-75
2022/10/26 07:15:01;;;;;;;14.38;10.57;;;10.50;99.90;;;;;;5075022;28;20375;-77
2022/10/26 07:17:27;;;;;;;13.60;10.48;;;10.50;99.90;;;;;;5076608;28;20086;-76
2022/10/26 07:19:53;;;;;;;13.73;11.15;;;10.50;99.90;;;;;;5076586;28;20089;-78
2022/10/26 07:22:19;;;;;;;14.05;11.23;;;10.50;99.90;;;;;;5084895;28;20040;-79
2022/10/26 07:24:49;;;;;;;13.40;11.40;;;11.10;99.90;;;;;;5073331;28;20047;-79
2022/10/26 07:27:14;;;;;;;19.25;11.43;;;10.70;99.90;;;;;;5091527;28;20028;-78
2022/10/26 07:29:40;;;;;;;13.48;10.48;;;10.70;99.90;;;;;;5089811;28;20085;-80
2022/10/26 07:32:06;;;;;;;18.42;11.27;;;10.60;99.90;;;;;;5084622;28;20143;-79
2022/10/26 07:34:31;;;;;;;14.50;10.82;;;11.20;99.90;;;;;;5091587;28;20458;-81
2022/10/26 07:36:59;;;;;;;19.88;10.95;;;10.60;99.90;;;;;;5089974;28;20052;-83
2022/10/26 07:39:24;;;;;;;16.48;10.57;;;10.70;99.90;;;;;;5092153;28;20068;-77
2022/10/26 07:41:50;;;;;;;10.23;9.10;;;10.70;99.90;;;;;;5090390;28;20067;-83
2022/10/26 07:44:15;;;;;;;15.57;10.50;;;10.70;99.90;;;;;;5091124;28;20399;-83
2022/10/26 07:46:41;;;;;;;22.98;9.40;;;11.20;99.90;;;;;;5090959;28;20089;-79
2022/10/26 07:49:07;;;;;;;13.55;9.55;;;10.80;99.90;;;;;;5089805;28;20490;-82
2022/10/26 07:51:32;;;;;;;17.35;9.25;;;10.80;99.90;;;;;;5090292;28;20082;-81
2022/10/26 07:53:58;;;;;;;14.77;8.43;;;10.80;99.90;;;;;;5090512;28;20071;-80
2022/10/26 07:56:23;;;;;;;10.15;8.40;;;11.40;99.90;;;;;;5073194;28;20040;-78
2022/10/26 07:58:52;;;;;;;12.68;8.93;;;11.50;99.90;;;;;;5091870;28;20032;-81
2022/10/26 08:01:17;;;;;;;12.15;7.43;;;11.90;99.90;;;;;;5083593;28;20096;-78
2022/10/26 08:03:43;;;;;;;14.70;8.15;;;11.80;99.90;;;;;;5089475;28;20131;-80
2022/10/26 08:06:09;;;;;;;11.90;7.80;;;11.10;99.90;;;;;;5090083;28;20056;-83
2022/10/26 08:08:35;;;;;;;10.15;7.60;;;11.10;99.90;;;;;;5090428;28;20364;-78
2022/10/26 08:11:01;;;;;;;9.98;8.07;;;11.80;99.90;;;;;;5090950;28;20487;-82
2022/10/26 08:13:27;;;;;;;14.02;7.53;;;11.20;99.90;;;;;;5091470;28;20395;-82
2022/10/26 08:15:57;;;;;;;12.23;6.97;;;11.20;99.90;;;;;;5073297;28;20048;-81
2022/10/26 08:18:23;;;;;;;11.93;6.43;;;11.30;99.90;;;;;;5081999;28;20036;-78
2022/10/26 08:20:49;;;;;;;9.13;6.57;;;11.30;99.90;;;;;;5089955;28;20040;-80
2022/10/26 08:23:14;;;;;;;12.52;6.43;;;11.30;99.90;;;;;;5084964;28;20140;-80
2022/10/26 08:25:40;;;;;;;9.15;6.03;;;11.40;99.90;;;;;;5090840;28;20150;-79
2022/10/26 08:28:05;;;;;;;11.60;5.47;;;11.50;99.90;;;;;;5091274;28;20040;-79
2022/10/26 08:30:31;;;;;;;9.07;5.63;;;12.20;99.90;;;;;;5073041;28;20398;-80
2022/10/26 08:32:58;;;;;;;8.93;5.10;;;11.60;99.90;;;;;;5090235;28;20040;-81
2022/10/26 08:35:24;;;;;;;9.90;4.80;;;11.70;99.90;;;;;;5089353;28;20475;-78
2022/10/26 08:37:51;;;;;;;8.38;4.55;;;11.80;99.90;;;;;;5073101;28;20040;-79
2022/10/26 08:40:21;;;;;;;5.47;4.10;;;11.90;99.90;;;;;;5089163;28;20058;-80
2022/10/26 08:42:51;;;;;;;9.50;4.78;;;12.00;99.90;;;;;;5090530;28;20097;-84
2022/10/26 08:45:25;;;;;;;8.27;4.55;;;12.60;99.90;;;;;;5071748;28;20040;-78
2022/10/26 08:47:56;;;;;;;8.48;4.60;;;12.10;99.90;;;;;;5073083;28;20044;-80
2022/10/26 08:50:30;;;;;;;7.18;3.88;;;12.20;99.90;;;;;;5080158;28;20043;-80
2022/10/26 08:53:06;;;;;;;6.10;3.65;;;12.90;99.90;;;;;;5074021;28;20054;-84
2022/10/26 08:55:42;;;;;;;6.90;4.43;;;12.30;99.90;;;;;;5087472;28;20492;-83
2022/10/26 08:58:15;;;;;;;8.80;4.00;;;12.40;99.90;;;;;;5090226;28;20039;-86
2022/10/26 09:00:40;;;;;;;9.73;4.03;;;12.50;99.90;;;;;;5088282;28;20028;-81
2022/10/26 09:03:14;;;;;;;5.78;3.17;;;13.30;99.90;;;;;;5089310;28;20093;-82
2022/10/26 09:06:01;;;;;;;7.30;4.30;;;12.60;99.90;;;;;;5090385;28;20036;-81
2022/10/26 09:08:46;;;;;;;7.47;3.72;;;12.70;99.90;;;;;;5063623;28;20036;-83
2022/10/26 09:11:39;;;;;;;9.27;3.83;;;12.80;99.90;;;;;;5088181;28;20415;-84
2022/10/26 09:14:10;;;;;;;7.20;3.60;;;12.80;99.90;;;;;;5087976;28;20047;-83
2022/10/26 09:16:49;;;;;;;4.93;3.13;;;12.90;99.90;;;;;;5088702;28;20040;-82
2022/10/26 09:19:32;;;;;;;8.95;3.70;;;12.90;99.90;;;;;;5062256;28;20045;-79
2022/10/26 09:22:22;;;;;;;7.20;3.70;;;13.00;99.90;;;;;;5087588;28;20404;-84
2022/10/26 09:24:57;;;;;;;7.28;3.47;;;13.10;99.90;;;;;;5090152;28;20036;-84
2022/10/26 09:27:28;;;;;;;10.13;4.25;;;13.10;99.90;;;;;;5083146;28;20718;-84
2022/10/26 09:29:56;;;;;;;8.32;3.63;;;13.60;99.90;;;;;;5090051;28;20082;-80
2022/10/26 09:32:35;;;;;;;10.05;3.88;;;13.40;99.90;;;;;;5090316;28;20119;-80
2022/10/26 09:35:08;;;;;;;6.25;3.55;;;13.40;99.90;;;;;;5070034;28;20119;-84
2022/10/26 09:37:45;;;;;;;6.43;3.70;;;13.50;99.90;;;;;;5082154;28;20079;-81
2022/10/26 09:40:37;;;;;;;9.77;3.55;;;13.50;99.90;;;;;;5087102;28;20406;-82
2022/10/26 09:43:35;;;;;;;7.82;3.97;;;13.60;99.90;;;;;;5060412;28;20086;-79
2022/10/26 09:46:01;;;;;;;6.40;3.28;;;13.70;99.90;;;;;;5067301;28;20449;-83
2022/10/26 09:48:35;;;;;;;4.75;3.28;;;13.80;99.90;;;;;;5086542;28;20040;-83
2022/10/26 09:51:01;;;;;;;5.18;3.65;;;13.80;99.90;;;;;;5089374;28;20044;-80
2022/10/26 09:53:27;;;;;;;6.32;3.70;;;13.80;99.90;;;;;;5087279;28;20048;-82
2022/10/26 09:56:19;;;;;;;7.28;3.13;;;14.20;99.90;;;;;;5086110;28;20074;-77
2022/10/26 09:58:58;;;;;;;5.38;3.17;;;15.10;99.90;;;;;;5085114;28;20062;-81
2022/10/26 10:01:31;;;;;;;8.27;3.42;;;14.10;99.90;;;;;;5089331;28;20043;-79
2022/10/26 10:04:23;;;;;;;5.63;3.10;;;14.10;99.90;;;;;;5087597;28;20079;-77
2022/10/26 10:07:10;;;;;;;10.48;4.25;;;14.20;99.90;;;;;;5083269;28;20071;-80
2022/10/26 10:09:36;;;;;;;8.05;3.30;;;15.10;99.90;;;;;;5065715;28;20168;-81
2022/10/26 10:12:03;;;;;;;7.75;3.17;;;14.20;99.90;;;;;;5088361;28;20070;-78
2022/10/26 10:14:32;;;;;;;9.60;3.65;;;14.20;99.90;;;;;;5089525;28;20035;-78
2022/10/26 10:17:03;;;;;;;6.80;3.67;;;14.60;99.90;;;;;;5087355;28;20044;-80
2022/10/26 10:19:31;;;;;;;10.00;3.53;;;14.30;99.90;;;;;;5087933;28;20446;-78
2022/10/26 10:22:29;;;;;;;4.00;3.60;;;14.30;99.90;;;;;;5087975;28;20044;-78
2022/10/26 10:25:00;;;;;;;6.60;3.70;;;14.40;99.90;;;;;;5048366;28;20115;-82
2022/10/26 10:27:27;;;;;;;8.27;2.92;;;14.40;99.90;;;;;;5098108;28;20040;-78
2022/10/26 10:29:55;;;;;;;12.40;3.38;;;14.60;99.90;;;;;;5090815;28;20548;-78
2022/10/26 10:32:26;;;;;;;10.00;2.85;;;14.60;99.90;;;;;;5086309;28;20044;-79
2022/10/26 10:34:57;;;;;;;4.63;3.05;;;14.60;99.90;;;;;;5090060;28;20038;-84
2022/10/26 10:37:35;;;;;;;6.68;3.08;;;14.60;99.90;;;;;;5085603;28;20118;-78
2022/10/26 10:40:16;;;;;;;7.57;3.05;;;14.80;99.90;;;;;;5088727;28;20109;-78
2022/10/26 10:42:43;;;;;;;6.72;2.47;;;14.90;99.90;;;;;;5063147;28;20123;-81
2022/10/26 10:45:23;;;;;;;4.57;2.25;;;15.00;99.90;;;;;;5070362;28;20043;-81
2022/10/26 10:48:20;;;;;;;6.95;2.38;;;15.10;99.90;;;;;;5081037;28;20546;-83
2022/10/26 10:50:59;;;;;;;6.13;2.15;;;15.20;99.90;;;;;;5087720;28;20499;-80
2022/10/26 10:53:57;;;;;;;4.22;2.00;;;15.20;99.90;;;;;;5088187;28;20396;-78
2022/10/26 10:56:30;;;;;;;8.75;2.22;;;15.30;99.90;;;;;;5072726;28;20446;-79
2022/10/26 10:59:14;;;;;;;5.35;2.13;;;15.40;99.90;;;;;;5088624;28;20249;-78
2022/10/26 11:01:49;;;;;;;6.75;2.17;;;16.10;99.90;;;;;;5089226;28;20063;-78
2022/10/26 11:04:21;;;;;;;5.15;1.92;;;16.40;99.90;;;;;;5087004;28;20040;-81
2022/10/26 11:06:48;;;;;;;4.63;2.15;;;15.60;99.90;;;;;;5084653;28;20044;-79
2022/10/26 11:09:20;;;;;;;3.90;1.83;;;15.70;99.90;;;;;;5092771;28;20044;-78
2022/10/26 11:12:06;;;;;;;4.22;2.05;;;15.70;99.90;;;;;;5082515;28;20066;-81
2022/10/26 11:14:44;;;;;;;9.15;2.38;;;15.80;99.90;;;;;;5090774;28;20051;-78
2022/10/26 11:17:19;;;;;;;7.63;2.42;;;15.90;99.90;;;;;;5092324;28;20052;-81
2022/10/26 11:19:59;;;;;;;6.70;1.92;;;16.70;99.90;;;;;;5091555;28;20404;-80
2022/10/26 11:22:32;;;;;;;3.65;2.05;;;16.00;99.90;;;;;;5091393;28;20044;-82
2022/10/26 11:25:06;;;;;;;5.32;2.05;;;16.10;99.90;;;;;;5076760;28;20387;-83
2022/10/26 11:27:44;;;;;;;8.93;1.80;;;16.10;99.90;;;;;;5072195;28;20453;-79
2022/10/26 11:30:27;;;;;;;3.70;1.70;;;16.20;99.90;;;;;;5092637;28;20115;-80
2022/10/26 11:33:03;;;;;;;7.70;1.92;;;16.20;99.90;;;;;;5083017;28;20036;-78
2022/10/26 11:35:35;;;;;;;7.00;1.88;;;17.00;99.90;;;;;;5073800;28;20047;-79
2022/10/26 11:38:24;;;;;;;7.68;1.80;;;16.90;99.90;;;;;;5073543;28;20044;-77
2022/10/26 11:41:02;;;;;;;6.45;1.55;;;16.50;99.90;;;;;;5089005;28;20131;-77
2022/10/26 11:43:46;;;;;;;10.30;1.95;;;16.70;99.90;;;;;;5090448;28;20044;-78
2022/10/26 11:46:41;;;;;;;7.05;2.00;;;16.80;99.90;;;;;;5090170;28;20127;-78
2022/10/26 11:49:13;;;;;;;5.28;1.85;;;16.90;99.90;;;;;;5085360;28;20526;-80
2022/10/26 11:51:54;;;;;;;4.65;1.58;;;17.10;99.90;;;;;;5090639;28;20036;-82
2022/10/26 11:54:27;;;;;;;7.88;1.65;;;17.30;99.90;;;;;;5090185;28;20048;-80
2022/10/26 11:56:55;;;;;;;4.03;1.85;;;17.30;99.90;;;;;;5087684;28;20119;-78
2022/10/26 11:59:24;;;;;;;5.05;1.30;;;17.50;99.90;;;;;;5091820;28;20057;-78
2022/10/26 12:02:14;;;;;;;6.28;1.63;;;17.60;99.90;;;;;;5088393;28;20032;-77
2022/10/26 12:04:42;;;;;;;7.60;2.05;;;17.70;99.90;;;;;;5095581;28;20479;-80
2022/10/26 12:07:13;;;;;;;5.35;1.85;;;17.70;99.90;;;;;;5090830;28;20507;-85
2022/10/26 12:09:42;;;;;;;5.18;1.92;;;18.70;99.90;;;;;;5091648;28;20476;-82
2022/10/26 12:12:19;;;;;;;6.25;2.13;;;18.40;99.90;;;;;;5073319;28;20051;-79
2022/10/26 12:14:53;;;;;;;4.78;2.05;;;17.60;99.90;;;;;;5072104;28;20059;-81
2022/10/26 12:17:31;;;;;;;8.60;2.72;;;18.10;99.90;;;;;;5089081;28;20036;-81
2022/10/26 12:20:19;;;;;;;5.90;2.28;;;17.90;99.90;;;;;;5082384;28;20040;-79
2022/10/26 12:22:46;;;;;;;8.43;1.92;;;17.80;99.90;;;;;;5088885;28;20039;-82
2022/10/26 12:25:14;;;;;;;7.22;2.40;;;17.80;99.90;;;;;;5089648;28;20058;-77
2022/10/26 12:27:40;;;;;;;8.00;2.50;;;17.90;99.90;;;;;;5086992;28;20048;-86
2022/10/26 12:30:17;;;;;;;10.63;2.53;;;18.30;99.90;;;;;;5090411;28;20101;-79
2022/10/26 12:32:43;;;;;;;5.45;2.65;;;18.60;99.90;;;;;;5089413;28;20043;-76
2022/10/26 12:35:29;;;;;;;7.65;3.15;;;17.90;99.90;;;;;;5091222;28;20046;-79
2022/10/26 12:37:54;;;;;;;8.52;3.03;;;17.80;99.90;;;;;;5082287;28;20487;-79
2022/10/26 12:40:32;;;;;;;4.82;2.15;;;17.70;99.90;;;;;;5091437;28;20080;-81
2022/10/26 12:43:13;;;;;;;4.80;2.53;;;17.60;99.90;;;;;;5090042;28;20036;-80
2022/10/26 12:45:40;;;;;;;7.05;2.28;;;17.60;99.90;;;;;;5088780;28;20040;-83
2022/10/26 12:48:21;;;;;;;4.20;2.65;;;17.50;99.90;;;;;;5089555;28;20048;-81
2022/10/26 12:50:47;;;;;;;7.65;2.80;;;17.40;99.90;;;;;;5089933;28;20097;-82
2022/10/26 12:53:18;;;;;;;6.47;2.55;;;17.30;99.90;;;;;;5090662;28;20048;-83
2022/10/26 12:55:44;;;;;;;6.03;2.60;;;17.40;99.90;;;;;;5070614;28;20086;-84
2022/10/26 12:58:22;;;;;;;7.28;2.88;;;17.40;99.90;;;;;;5071556;28;20075;-82
2022/10/26 13:01:13;;;;;;;4.75;3.00;;;17.50;99.90;;;;;;5089537;28;20040;-84